sensor_id;sensor_type;location;lat;lon;timestamp;P1;durP1;ratioP1;P2;durP2;ratioP2
17197;SDS011;8715;51.010;6.812;2023-09-19T00:02:44;919.63;;;853.15;;
17197;SDS011;8715;51.010;6.812;2023-09-19T00:05:33;919.50;;;853.63;;
17197;SDS011;8715;51.010;6.812;2023-09-19T00:08:18;922.33;;;855.78;;
17197;SDS011;8715;51.010;6.812;2023-09-19T00:11:07;919.80;;;853.92;;
17197;SDS011;8715;51.010;6.812;2023-09-19T00:13:54;918.25;;;852.15;;
17197;SDS011;8715;51.010;6.812;2023-09-19T00:16:41;913.63;;;848.22;;
17197;SDS011;8715;51.010;6.812;2023-09-19T00:19:27;920.15;;;854.10;;
17197;SDS011;8715;51.010;6.812;2023-09-19T00:22:14;919.35;;;853.53;;
17197;SDS011;8715;51.010;6.812;2023-09-19T00:24:59;920.50;;;853.92;;
17197;SDS011;8715;51.010;6.812;2023-09-19T00:27:44;919.80;;;854.08;;
17197;SDS011;8715;51.010;6.812;2023-09-19T00:30:31;915.20;;;849.65;;
17197;SDS011;8715;51.010;6.812;2023-09-19T00:33:17;919.75;;;854.03;;
17197;SDS011;8715;51.010;6.812;2023-09-19T00:36:04;917.72;;;851.88;;
17197;SDS011;8715;51.010;6.812;2023-09-19T00:38:49;919.25;;;853.50;;
17197;SDS011;8715;51.010;6.812;2023-09-19T00:41:35;918.30;;;852.55;;
17197;SDS011;8715;51.010;6.812;2023-09-19T00:44:20;918.78;;;853.38;;
17197;SDS011;8715;51.010;6.812;2023-09-19T00:47:06;917.90;;;852.15;;
17197;SDS011;8715;51.010;6.812;2023-09-19T00:49:52;929.40;;;863.53;;
17197;SDS011;8715;51.010;6.812;2023-09-19T00:52:39;918.55;;;853.10;;
17197;SDS011;8715;51.010;6.812;2023-09-19T00:55:25;913.58;;;847.97;;
17197;SDS011;8715;51.010;6.812;2023-09-19T00:58:11;918.80;;;852.78;;
17197;SDS011;8715;51.010;6.812;2023-09-19T01:00:56;920.10;;;853.78;;
17197;SDS011;8715;51.010;6.812;2023-09-19T01:03:42;918.13;;;852.38;;
17197;SDS011;8715;51.010;6.812;2023-09-19T01:06:27;917.72;;;851.75;;
17197;SDS011;8715;51.010;6.812;2023-09-19T01:09:14;917.97;;;851.75;;
17197;SDS011;8715;51.010;6.812;2023-09-19T01:12:01;916.20;;;850.58;;
17197;SDS011;8715;51.010;6.812;2023-09-19T01:14:50;918.85;;;852.70;;
17197;SDS011;8715;51.010;6.812;2023-09-19T01:17:42;918.30;;;851.72;;
17197;SDS011;8715;51.010;6.812;2023-09-19T01:20:33;916.72;;;851.33;;
17197;SDS011;8715;51.010;6.812;2023-09-19T01:23:23;916.70;;;850.55;;
17197;SDS011;8715;51.010;6.812;2023-09-19T01:26:24;922.33;;;855.88;;
17197;SDS011;8715;51.010;6.812;2023-09-19T01:29:17;914.53;;;848.88;;
17197;SDS011;8715;51.010;6.812;2023-09-19T01:32:18;916.97;;;851.25;;
17197;SDS011;8715;51.010;6.812;2023-09-19T01:35:05;917.88;;;852.13;;
17197;SDS011;8715;51.010;6.812;2023-09-19T01:37:56;920.55;;;854.20;;
17197;SDS011;8715;51.010;6.812;2023-09-19T01:40:42;917.75;;;851.70;;
17197;SDS011;8715;51.010;6.812;2023-09-19T01:43:31;919.17;;;853.33;;
17197;SDS011;8715;51.010;6.812;2023-09-19T01:46:21;918.85;;;852.72;;
17197;SDS011;8715;51.010;6.812;2023-09-19T01:52:12;916.25;;;850.72;;
17197;SDS011;8715;51.010;6.812;2023-09-19T01:55:02;919.80;;;853.83;;
17197;SDS011;8715;51.010;6.812;2023-09-19T01:57:52;917.22;;;851.80;;
17197;SDS011;8715;51.010;6.812;2023-09-19T02:00:44;918.30;;;852.42;;
17197;SDS011;8715;51.010;6.812;2023-09-19T02:06:18;917.05;;;851.55;;
17197;SDS011;8715;51.010;6.812;2023-09-19T02:11:50;916.42;;;851.33;;
17197;SDS011;8715;51.010;6.812;2023-09-19T02:14:35;918.25;;;852.95;;
17197;SDS011;8715;51.010;6.812;2023-09-19T02:17:21;914.22;;;848.97;;
17197;SDS011;8715;51.010;6.812;2023-09-19T02:20:10;917.47;;;851.70;;
17197;SDS011;8715;51.010;6.812;2023-09-19T02:22:59;914.92;;;849.97;;
17197;SDS011;8715;51.010;6.812;2023-09-19T02:25:51;914.38;;;849.05;;
17197;SDS011;8715;51.010;6.812;2023-09-19T02:28:37;915.00;;;849.72;;
17197;SDS011;8715;51.010;6.812;2023-09-19T02:31:23;916.60;;;851.20;;
17197;SDS011;8715;51.010;6.812;2023-09-19T02:34:10;918.58;;;853.15;;
17197;SDS011;8715;51.010;6.812;2023-09-19T02:36:55;913.55;;;848.47;;
17197;SDS011;8715;51.010;6.812;2023-09-19T02:39:41;914.63;;;849.28;;
17197;SDS011;8715;51.010;6.812;2023-09-19T02:42:27;914.95;;;849.83;;
17197;SDS011;8715;51.010;6.812;2023-09-19T02:45:12;911.17;;;846.58;;
17197;SDS011;8715;51.010;6.812;2023-09-19T02:47:58;916.00;;;850.60;;
17197;SDS011;8715;51.010;6.812;2023-09-19T02:50:43;916.05;;;850.53;;
17197;SDS011;8715;51.010;6.812;2023-09-19T02:53:28;910.63;;;845.30;;
17197;SDS011;8715;51.010;6.812;2023-09-19T02:56:16;929.50;;;864.05;;
17197;SDS011;8715;51.010;6.812;2023-09-19T02:59:02;914.92;;;849.63;;
17197;SDS011;8715;51.010;6.812;2023-09-19T03:01:47;915.30;;;850.38;;
17197;SDS011;8715;51.010;6.812;2023-09-19T03:04:33;914.28;;;849.30;;
17197;SDS011;8715;51.010;6.812;2023-09-19T03:07:19;915.10;;;850.00;;
17197;SDS011;8715;51.010;6.812;2023-09-19T03:10:05;909.05;;;845.00;;
17197;SDS011;8715;51.010;6.812;2023-09-19T03:12:52;912.90;;;848.22;;
17197;SDS011;8715;51.010;6.812;2023-09-19T03:15:40;912.55;;;847.75;;
17197;SDS011;8715;51.010;6.812;2023-09-19T03:18:27;915.40;;;850.50;;
17197;SDS011;8715;51.010;6.812;2023-09-19T03:21:12;911.85;;;847.10;;
17197;SDS011;8715;51.010;6.812;2023-09-19T03:23:58;910.55;;;845.75;;
17197;SDS011;8715;51.010;6.812;2023-09-19T03:26:43;912.42;;;847.60;;
17197;SDS011;8715;51.010;6.812;2023-09-19T03:29:30;911.72;;;847.08;;
17197;SDS011;8715;51.010;6.812;2023-09-19T03:32:15;912.60;;;848.03;;
17197;SDS011;8715;51.010;6.812;2023-09-19T03:35:01;913.28;;;848.78;;
17197;SDS011;8715;51.010;6.812;2023-09-19T03:37:48;911.35;;;847.33;;
17197;SDS011;8715;51.010;6.812;2023-09-19T03:40:36;910.60;;;846.45;;
17197;SDS011;8715;51.010;6.812;2023-09-19T03:43:21;910.80;;;846.67;;
17197;SDS011;8715;51.010;6.812;2023-09-19T03:46:08;924.75;;;859.25;;
17197;SDS011;8715;51.010;6.812;2023-09-19T03:48:53;912.72;;;848.38;;
17197;SDS011;8715;51.010;6.812;2023-09-19T03:51:38;908.95;;;845.45;;
17197;SDS011;8715;51.010;6.812;2023-09-19T03:54:25;908.70;;;844.95;;
17197;SDS011;8715;51.010;6.812;2023-09-19T03:57:10;911.45;;;847.22;;
17197;SDS011;8715;51.010;6.812;2023-09-19T03:59:59;908.30;;;844.20;;
17197;SDS011;8715;51.010;6.812;2023-09-19T04:02:45;911.58;;;847.20;;
17197;SDS011;8715;51.010;6.812;2023-09-19T04:05:31;908.08;;;844.25;;
17197;SDS011;8715;51.010;6.812;2023-09-19T04:08:16;910.50;;;846.65;;
17197;SDS011;8715;51.010;6.812;2023-09-19T04:11:01;911.15;;;846.92;;
17197;SDS011;8715;51.010;6.812;2023-09-19T04:13:47;923.80;;;859.40;;
17197;SDS011;8715;51.010;6.812;2023-09-19T04:16:32;908.25;;;844.47;;
17197;SDS011;8715;51.010;6.812;2023-09-19T04:19:19;910.00;;;846.13;;
17197;SDS011;8715;51.010;6.812;2023-09-19T04:22:06;905.47;;;841.85;;
17197;SDS011;8715;51.010;6.812;2023-09-19T04:24:52;910.65;;;846.42;;
17197;SDS011;8715;51.010;6.812;2023-09-19T04:27:37;906.53;;;842.70;;
17197;SDS011;8715;51.010;6.812;2023-09-19T04:30:23;906.90;;;843.30;;
17197;SDS011;8715;51.010;6.812;2023-09-19T04:33:09;907.50;;;844.05;;
17197;SDS011;8715;51.010;6.812;2023-09-19T04:35:56;922.10;;;858.25;;
17197;SDS011;8715;51.010;6.812;2023-09-19T04:38:43;909.30;;;845.45;;
17197;SDS011;8715;51.010;6.812;2023-09-19T04:41:28;907.40;;;843.80;;
17197;SDS011;8715;51.010;6.812;2023-09-19T04:44:14;912.28;;;847.95;;
17197;SDS011;8715;51.010;6.812;2023-09-19T04:46:59;907.00;;;843.53;;
17197;SDS011;8715;51.010;6.812;2023-09-19T04:49:44;906.67;;;843.05;;
17197;SDS011;8715;51.010;6.812;2023-09-19T04:52:31;904.50;;;841.47;;
17197;SDS011;8715;51.010;6.812;2023-09-19T04:55:17;913.67;;;849.65;;
17197;SDS011;8715;51.010;6.812;2023-09-19T04:58:03;905.65;;;842.58;;
17197;SDS011;8715;51.010;6.812;2023-09-19T05:00:48;906.80;;;843.53;;
17197;SDS011;8715;51.010;6.812;2023-09-19T05:03:34;907.83;;;844.13;;
17197;SDS011;8715;51.010;6.812;2023-09-19T05:06:20;910.35;;;846.85;;
17197;SDS011;8715;51.010;6.812;2023-09-19T05:09:07;922.17;;;858.47;;
17197;SDS011;8715;51.010;6.812;2023-09-19T05:11:52;908.75;;;845.25;;
17197;SDS011;8715;51.010;6.812;2023-09-19T05:14:38;913.08;;;848.95;;
17197;SDS011;8715;51.010;6.812;2023-09-19T05:17:24;912.33;;;848.85;;
17197;SDS011;8715;51.010;6.812;2023-09-19T05:20:10;905.58;;;842.33;;
17197;SDS011;8715;51.010;6.812;2023-09-19T05:22:59;906.50;;;843.42;;
17197;SDS011;8715;51.010;6.812;2023-09-19T05:25:46;905.45;;;841.85;;
17197;SDS011;8715;51.010;6.812;2023-09-19T05:28:32;910.63;;;847.13;;
17197;SDS011;8715;51.010;6.812;2023-09-19T05:31:18;905.53;;;842.40;;
17197;SDS011;8715;51.010;6.812;2023-09-19T05:34:03;909.15;;;846.03;;
17197;SDS011;8715;51.010;6.812;2023-09-19T05:36:48;921.08;;;857.35;;
17197;SDS011;8715;51.010;6.812;2023-09-19T05:39:33;908.17;;;844.72;;
17197;SDS011;8715;51.010;6.812;2023-09-19T05:42:22;907.30;;;844.03;;
17197;SDS011;8715;51.010;6.812;2023-09-19T05:45:08;906.97;;;843.58;;
17197;SDS011;8715;51.010;6.812;2023-09-19T05:47:55;907.38;;;844.28;;
17197;SDS011;8715;51.010;6.812;2023-09-19T05:50:48;906.65;;;843.17;;
17197;SDS011;8715;51.010;6.812;2023-09-19T05:53:33;912.42;;;847.92;;
17197;SDS011;8715;51.010;6.812;2023-09-19T05:56:18;909.70;;;845.80;;
17197;SDS011;8715;51.010;6.812;2023-09-19T05:59:05;907.33;;;843.83;;
17197;SDS011;8715;51.010;6.812;2023-09-19T06:01:50;905.00;;;841.72;;
17197;SDS011;8715;51.010;6.812;2023-09-19T06:04:36;913.63;;;849.28;;
17197;SDS011;8715;51.010;6.812;2023-09-19T06:07:24;910.38;;;845.92;;
17197;SDS011;8715;51.010;6.812;2023-09-19T06:10:09;911.85;;;847.63;;
17197;SDS011;8715;51.010;6.812;2023-09-19T06:12:54;910.10;;;846.30;;
17197;SDS011;8715;51.010;6.812;2023-09-19T06:15:42;910.05;;;845.90;;
17197;SDS011;8715;51.010;6.812;2023-09-19T06:18:28;909.50;;;845.30;;
17197;SDS011;8715;51.010;6.812;2023-09-19T06:21:17;912.58;;;848.58;;
17197;SDS011;8715;51.010;6.812;2023-09-19T06:24:02;925.70;;;860.60;;
17197;SDS011;8715;51.010;6.812;2023-09-19T06:26:48;912.85;;;847.97;;
17197;SDS011;8715;51.010;6.812;2023-09-19T06:29:33;915.03;;;850.10;;
17197;SDS011;8715;51.010;6.812;2023-09-19T06:32:27;913.58;;;848.33;;
17197;SDS011;8715;51.010;6.812;2023-09-19T06:35:13;912.00;;;847.42;;
17197;SDS011;8715;51.010;6.812;2023-09-19T06:38:01;914.17;;;849.10;;
17197;SDS011;8715;51.010;6.812;2023-09-19T06:40:47;914.92;;;850.25;;
17197;SDS011;8715;51.010;6.812;2023-09-19T06:43:34;924.85;;;859.70;;
17197;SDS011;8715;51.010;6.812;2023-09-19T06:46:19;913.53;;;848.30;;
17197;SDS011;8715;51.010;6.812;2023-09-19T06:49:05;913.55;;;847.90;;
17197;SDS011;8715;51.010;6.812;2023-09-19T06:51:51;918.08;;;852.28;;
17197;SDS011;8715;51.010;6.812;2023-09-19T06:54:39;916.67;;;850.70;;
17197;SDS011;8715;51.010;6.812;2023-09-19T06:57:25;920.67;;;854.78;;
17197;SDS011;8715;51.010;6.812;2023-09-19T07:00:11;918.97;;;852.58;;
17197;SDS011;8715;51.010;6.812;2023-09-19T07:03:03;917.85;;;851.45;;
17197;SDS011;8715;51.010;6.812;2023-09-19T07:05:53;919.40;;;852.95;;
17197;SDS011;8715;51.010;6.812;2023-09-19T07:08:39;920.95;;;854.28;;
17197;SDS011;8715;51.010;6.812;2023-09-19T07:11:24;919.83;;;853.05;;
17197;SDS011;8715;51.010;6.812;2023-09-19T07:14:10;935.53;;;868.05;;
17197;SDS011;8715;51.010;6.812;2023-09-19T07:16:55;919.33;;;852.47;;
17197;SDS011;8715;51.010;6.812;2023-09-19T07:19:43;925.25;;;858.00;;
17197;SDS011;8715;51.010;6.812;2023-09-19T07:22:30;920.38;;;853.72;;
17197;SDS011;8715;51.010;6.812;2023-09-19T07:25:15;925.63;;;858.03;;
17197;SDS011;8715;51.010;6.812;2023-09-19T07:28:01;924.90;;;857.33;;
17197;SDS011;8715;51.010;6.812;2023-09-19T07:30:46;922.97;;;855.60;;
17197;SDS011;8715;51.010;6.812;2023-09-19T07:33:31;926.05;;;858.10;;
17197;SDS011;8715;51.010;6.812;2023-09-19T07:36:17;925.88;;;857.85;;
17197;SDS011;8715;51.010;6.812;2023-09-19T07:39:04;927.35;;;859.10;;
17197;SDS011;8715;51.010;6.812;2023-09-19T07:41:50;930.22;;;861.78;;
17197;SDS011;8715;51.010;6.812;2023-09-19T07:44:35;926.97;;;858.10;;
17197;SDS011;8715;51.010;6.812;2023-09-19T07:47:21;920.88;;;853.15;;
17197;SDS011;8715;51.010;6.812;2023-09-19T07:50:06;930.13;;;861.00;;
17197;SDS011;8715;51.010;6.812;2023-09-19T07:52:52;929.13;;;859.80;;
17197;SDS011;8715;51.010;6.812;2023-09-19T07:55:39;941.13;;;871.83;;
17197;SDS011;8715;51.010;6.812;2023-09-19T07:58:24;932.25;;;863.08;;
17197;SDS011;8715;51.010;6.812;2023-09-19T08:01:10;945.83;;;875.38;;
17197;SDS011;8715;51.010;6.812;2023-09-19T08:03:57;932.42;;;862.65;;
17197;SDS011;8715;51.010;6.812;2023-09-19T08:06:42;932.38;;;861.80;;
17197;SDS011;8715;51.010;6.812;2023-09-19T08:09:28;934.53;;;864.00;;
17197;SDS011;8715;51.010;6.812;2023-09-19T08:12:18;933.15;;;862.42;;
17197;SDS011;8715;51.010;6.812;2023-09-19T08:15:08;935.42;;;864.50;;
17197;SDS011;8715;51.010;6.812;2023-09-19T08:17:54;935.15;;;864.20;;
17197;SDS011;8715;51.010;6.812;2023-09-19T08:20:39;936.83;;;865.20;;
17197;SDS011;8715;51.010;6.812;2023-09-19T08:23:26;937.67;;;866.00;;
17197;SDS011;8715;51.010;6.812;2023-09-19T08:26:12;939.70;;;867.97;;
17197;SDS011;8715;51.010;6.812;2023-09-19T08:28:59;937.53;;;865.92;;
17197;SDS011;8715;51.010;6.812;2023-09-19T08:31:48;948.35;;;876.42;;
17197;SDS011;8715;51.010;6.812;2023-09-19T08:34:34;937.65;;;866.22;;
17197;SDS011;8715;51.010;6.812;2023-09-19T08:37:22;938.63;;;866.60;;
17197;SDS011;8715;51.010;6.812;2023-09-19T08:40:08;939.45;;;867.58;;
17197;SDS011;8715;51.010;6.812;2023-09-19T08:42:54;935.90;;;864.35;;
17197;SDS011;8715;51.010;6.812;2023-09-19T08:45:41;939.72;;;867.88;;
17197;SDS011;8715;51.010;6.812;2023-09-19T08:48:27;939.88;;;867.40;;
17197;SDS011;8715;51.010;6.812;2023-09-19T08:51:16;939.70;;;867.22;;
17197;SDS011;8715;51.010;6.812;2023-09-19T08:54:03;936.00;;;864.13;;
17197;SDS011;8715;51.010;6.812;2023-09-19T08:56:53;939.20;;;867.35;;
17197;SDS011;8715;51.010;6.812;2023-09-19T08:59:39;937.00;;;865.25;;
17197;SDS011;8715;51.010;6.812;2023-09-19T09:02:25;943.60;;;873.13;;
17197;SDS011;8715;51.010;6.812;2023-09-19T09:05:11;940.05;;;867.80;;
17197;SDS011;8715;51.010;6.812;2023-09-19T09:07:56;941.92;;;869.63;;
17197;SDS011;8715;51.010;6.812;2023-09-19T09:10:44;938.78;;;866.72;;
17197;SDS011;8715;51.010;6.812;2023-09-19T09:13:30;937.45;;;864.92;;
17197;SDS011;8715;51.010;6.812;2023-09-19T09:16:15;939.58;;;866.78;;
17197;SDS011;8715;51.010;6.812;2023-09-19T09:19:04;944.85;;;871.58;;
17197;SDS011;8715;51.010;6.812;2023-09-19T09:21:49;944.75;;;871.15;;
17197;SDS011;8715;51.010;6.812;2023-09-19T09:24:35;946.10;;;872.00;;
17197;SDS011;8715;51.010;6.812;2023-09-19T09:27:22;943.10;;;869.63;;
17197;SDS011;8715;51.010;6.812;2023-09-19T09:30:08;947.97;;;873.08;;
17197;SDS011;8715;51.010;6.812;2023-09-19T09:33:07;950.60;;;875.42;;
17197;SDS011;8715;51.010;6.812;2023-09-19T09:35:55;955.08;;;881.15;;
17197;SDS011;8715;51.010;6.812;2023-09-19T09:38:42;947.22;;;872.50;;
17197;SDS011;8715;51.010;6.812;2023-09-19T09:41:35;945.80;;;871.53;;
17197;SDS011;8715;51.010;6.812;2023-09-19T09:44:23;946.67;;;872.00;;
17197;SDS011;8715;51.010;6.812;2023-09-19T09:47:11;947.67;;;873.15;;
17197;SDS011;8715;51.010;6.812;2023-09-19T09:50:23;949.47;;;874.08;;
17197;SDS011;8715;51.010;6.812;2023-09-19T09:53:23;946.22;;;871.22;;
17197;SDS011;8715;51.010;6.812;2023-09-19T09:56:11;946.92;;;872.10;;
17197;SDS011;8715;51.010;6.812;2023-09-19T09:58:59;946.28;;;871.63;;
17197;SDS011;8715;51.010;6.812;2023-09-19T10:01:46;957.95;;;883.28;;
17197;SDS011;8715;51.010;6.812;2023-09-19T10:04:32;943.75;;;869.65;;
17197;SDS011;8715;51.010;6.812;2023-09-19T10:07:24;949.00;;;874.13;;
17197;SDS011;8715;51.010;6.812;2023-09-19T10:10:13;948.85;;;873.65;;
17197;SDS011;8715;51.010;6.812;2023-09-19T10:13:03;949.30;;;874.55;;
17197;SDS011;8715;51.010;6.812;2023-09-19T10:15:51;946.88;;;872.33;;
17197;SDS011;8715;51.010;6.812;2023-09-19T10:18:38;945.42;;;870.70;;
17197;SDS011;8715;51.010;6.812;2023-09-19T10:21:25;946.05;;;871.45;;
17197;SDS011;8715;51.010;6.812;2023-09-19T10:24:14;949.92;;;875.03;;
17197;SDS011;8715;51.010;6.812;2023-09-19T10:27:03;946.58;;;871.75;;
17197;SDS011;8715;51.010;6.812;2023-09-19T10:29:49;957.35;;;882.70;;
17197;SDS011;8715;51.010;6.812;2023-09-19T10:35:23;945.08;;;870.55;;
17197;SDS011;8715;51.010;6.812;2023-09-19T10:38:09;946.80;;;871.80;;
17197;SDS011;8715;51.010;6.812;2023-09-19T10:40:56;946.50;;;871.30;;
17197;SDS011;8715;51.010;6.812;2023-09-19T10:43:44;950.17;;;875.33;;
17197;SDS011;8715;51.010;6.812;2023-09-19T10:46:31;947.38;;;872.22;;
17197;SDS011;8715;51.010;6.812;2023-09-19T10:49:16;943.65;;;869.15;;
17197;SDS011;8715;51.010;6.812;2023-09-19T10:52:01;949.58;;;874.28;;
17197;SDS011;8715;51.010;6.812;2023-09-19T10:54:49;945.50;;;870.67;;
17197;SDS011;8715;51.010;6.812;2023-09-19T10:57:38;945.00;;;870.58;;
17197;SDS011;8715;51.010;6.812;2023-09-19T11:00:31;956.80;;;882.50;;
17197;SDS011;8715;51.010;6.812;2023-09-19T11:03:35;947.17;;;872.40;;
17197;SDS011;8715;51.010;6.812;2023-09-19T11:06:27;945.22;;;870.17;;
17197;SDS011;8715;51.010;6.812;2023-09-19T11:09:12;958.72;;;883.85;;
17197;SDS011;8715;51.010;6.812;2023-09-19T11:12:05;946.08;;;871.00;;
17197;SDS011;8715;51.010;6.812;2023-09-19T11:14:51;944.55;;;869.75;;
17197;SDS011;8715;51.010;6.812;2023-09-19T11:17:37;947.03;;;871.50;;
17197;SDS011;8715;51.010;6.812;2023-09-19T11:20:25;946.97;;;871.58;;
17197;SDS011;8715;51.010;6.812;2023-09-19T11:23:35;947.53;;;872.50;;
17197;SDS011;8715;51.010;6.812;2023-09-19T11:26:32;961.20;;;885.58;;
17197;SDS011;8715;51.010;6.812;2023-09-19T11:29:27;947.60;;;872.15;;
17197;SDS011;8715;51.010;6.812;2023-09-19T11:32:13;947.33;;;872.25;;
17197;SDS011;8715;51.010;6.812;2023-09-19T11:35:07;947.17;;;871.97;;
17197;SDS011;8715;51.010;6.812;2023-09-19T11:38:02;946.28;;;871.63;;
17197;SDS011;8715;51.010;6.812;2023-09-19T11:44:32;947.97;;;872.85;;
17197;SDS011;8715;51.010;6.812;2023-09-19T11:47:21;949.70;;;874.42;;
17197;SDS011;8715;51.010;6.812;2023-09-19T11:50:10;961.40;;;885.70;;
17197;SDS011;8715;51.010;6.812;2023-09-19T11:52:55;947.97;;;872.40;;
17197;SDS011;8715;51.010;6.812;2023-09-19T11:55:41;947.95;;;872.25;;
17197;SDS011;8715;51.010;6.812;2023-09-19T11:58:27;952.90;;;876.67;;
17197;SDS011;8715;51.010;6.812;2023-09-19T12:01:14;951.15;;;874.65;;
17197;SDS011;8715;51.010;6.812;2023-09-19T12:04:03;951.38;;;875.40;;
17197;SDS011;8715;51.010;6.812;2023-09-19T12:06:57;952.78;;;875.97;;
17197;SDS011;8715;51.010;6.812;2023-09-19T12:09:43;949.17;;;873.22;;
17197;SDS011;8715;51.010;6.812;2023-09-19T12:12:31;963.13;;;886.40;;
17197;SDS011;8715;51.010;6.812;2023-09-19T12:15:22;955.70;;;878.67;;
17197;SDS011;8715;51.010;6.812;2023-09-19T12:18:08;956.75;;;879.50;;
17197;SDS011;8715;51.010;6.812;2023-09-19T12:20:53;955.60;;;878.30;;
17197;SDS011;8715;51.010;6.812;2023-09-19T12:23:41;957.05;;;879.40;;
17197;SDS011;8715;51.010;6.812;2023-09-19T12:26:27;964.65;;;887.60;;
17197;SDS011;8715;51.010;6.812;2023-09-19T12:29:13;954.00;;;877.38;;
17197;SDS011;8715;51.010;6.812;2023-09-19T12:32:01;953.75;;;876.67;;
17197;SDS011;8715;51.010;6.812;2023-09-19T12:37:42;953.38;;;876.95;;
17197;SDS011;8715;51.010;6.812;2023-09-19T12:40:33;952.30;;;875.80;;
17197;SDS011;8715;51.010;6.812;2023-09-19T12:43:22;953.72;;;876.92;;
17197;SDS011;8715;51.010;6.812;2023-09-19T12:46:07;951.78;;;875.08;;
17197;SDS011;8715;51.010;6.812;2023-09-19T12:52:02;953.58;;;876.38;;
17197;SDS011;8715;51.010;6.812;2023-09-19T12:54:48;953.28;;;876.42;;
17197;SDS011;8715;51.010;6.812;2023-09-19T12:57:36;955.80;;;878.42;;
17197;SDS011;8715;51.010;6.812;2023-09-19T13:00:30;954.15;;;877.05;;
17197;SDS011;8715;51.010;6.812;2023-09-19T13:03:18;958.28;;;880.20;;
17197;SDS011;8715;51.010;6.812;2023-09-19T13:06:10;959.05;;;880.72;;
17197;SDS011;8715;51.010;6.812;2023-09-19T13:09:07;958.83;;;880.08;;
17197;SDS011;8715;51.010;6.812;2023-09-19T13:11:52;961.03;;;882.38;;
17197;SDS011;8715;51.010;6.812;2023-09-19T13:14:39;957.05;;;878.58;;
17197;SDS011;8715;51.010;6.812;2023-09-19T13:17:42;957.60;;;879.17;;
17197;SDS011;8715;51.010;6.812;2023-09-19T13:20:27;959.20;;;880.30;;
17197;SDS011;8715;51.010;6.812;2023-09-19T13:23:25;959.22;;;881.05;;
17197;SDS011;8715;51.010;6.812;2023-09-19T13:26:11;958.17;;;880.22;;
17197;SDS011;8715;51.010;6.812;2023-09-19T13:28:56;955.30;;;877.45;;
17197;SDS011;8715;51.010;6.812;2023-09-19T13:31:44;967.45;;;889.75;;
17197;SDS011;8715;51.010;6.812;2023-09-19T13:34:30;957.05;;;879.17;;
17197;SDS011;8715;51.010;6.812;2023-09-19T13:37:15;957.83;;;879.75;;
17197;SDS011;8715;51.010;6.812;2023-09-19T13:40:01;955.33;;;877.50;;
17197;SDS011;8715;51.010;6.812;2023-09-19T13:42:49;958.55;;;880.47;;
17197;SDS011;8715;51.010;6.812;2023-09-19T13:45:37;957.38;;;879.20;;
17197;SDS011;8715;51.010;6.812;2023-09-19T13:48:23;966.78;;;888.95;;
17197;SDS011;8715;51.010;6.812;2023-09-19T13:51:09;956.28;;;878.45;;
17197;SDS011;8715;51.010;6.812;2023-09-19T13:53:54;966.40;;;888.78;;
17197;SDS011;8715;51.010;6.812;2023-09-19T13:56:39;955.67;;;878.10;;
17197;SDS011;8715;51.010;6.812;2023-09-19T13:59:25;956.28;;;878.53;;
17197;SDS011;8715;51.010;6.812;2023-09-19T14:02:12;958.20;;;880.30;;
17197;SDS011;8715;51.010;6.812;2023-09-19T14:04:59;954.90;;;877.60;;
17197;SDS011;8715;51.010;6.812;2023-09-19T14:10:30;952.10;;;875.40;;
17197;SDS011;8715;51.010;6.812;2023-09-19T14:13:16;955.63;;;878.30;;
17197;SDS011;8715;51.010;6.812;2023-09-19T14:16:02;955.45;;;877.95;;
17197;SDS011;8715;51.010;6.812;2023-09-19T14:18:49;956.25;;;879.28;;
17197;SDS011;8715;51.010;6.812;2023-09-19T14:21:36;954.45;;;877.40;;
17197;SDS011;8715;51.010;6.812;2023-09-19T14:24:23;956.58;;;878.97;;
17197;SDS011;8715;51.010;6.812;2023-09-19T14:27:08;953.72;;;876.80;;
17197;SDS011;8715;51.010;6.812;2023-09-19T14:29:54;953.85;;;876.90;;
17197;SDS011;8715;51.010;6.812;2023-09-19T14:32:40;950.97;;;874.35;;
17197;SDS011;8715;51.010;6.812;2023-09-19T14:35:25;950.42;;;873.83;;
17197;SDS011;8715;51.010;6.812;2023-09-19T14:38:12;954.38;;;877.33;;
17197;SDS011;8715;51.010;6.812;2023-09-19T14:41:01;950.58;;;874.08;;
17197;SDS011;8715;51.010;6.812;2023-09-19T14:43:46;955.65;;;878.50;;
17197;SDS011;8715;51.010;6.812;2023-09-19T14:46:31;959.13;;;881.38;;
17197;SDS011;8715;51.010;6.812;2023-09-19T14:49:17;951.42;;;874.67;;
17197;SDS011;8715;51.010;6.812;2023-09-19T14:52:03;954.63;;;877.42;;
17197;SDS011;8715;51.010;6.812;2023-09-19T14:54:50;953.60;;;876.58;;
17197;SDS011;8715;51.010;6.812;2023-09-19T14:57:35;956.65;;;879.67;;
17197;SDS011;8715;51.010;6.812;2023-09-19T15:00:23;952.95;;;876.40;;
17197;SDS011;8715;51.010;6.812;2023-09-19T15:03:10;950.65;;;874.30;;
17197;SDS011;8715;51.010;6.812;2023-09-19T15:05:58;952.97;;;876.33;;
17197;SDS011;8715;51.010;6.812;2023-09-19T15:08:44;948.38;;;872.70;;
17197;SDS011;8715;51.010;6.812;2023-09-19T15:11:32;953.65;;;877.50;;
17197;SDS011;8715;51.010;6.812;2023-09-19T15:14:17;950.13;;;874.15;;
17197;SDS011;8715;51.010;6.812;2023-09-19T15:17:03;951.03;;;874.65;;
17197;SDS011;8715;51.010;6.812;2023-09-19T15:19:49;951.97;;;876.30;;
17197;SDS011;8715;51.010;6.812;2023-09-19T15:22:34;950.30;;;874.53;;
17197;SDS011;8715;51.010;6.812;2023-09-19T15:25:20;948.45;;;873.17;;
17197;SDS011;8715;51.010;6.812;2023-09-19T15:28:09;951.03;;;875.42;;
17197;SDS011;8715;51.010;6.812;2023-09-19T15:30:57;948.92;;;873.63;;
17197;SDS011;8715;51.010;6.812;2023-09-19T15:33:43;951.88;;;876.45;;
17197;SDS011;8715;51.010;6.812;2023-09-19T15:36:28;958.55;;;883.47;;
17197;SDS011;8715;51.010;6.812;2023-09-19T15:39:14;947.47;;;872.35;;
17197;SDS011;8715;51.010;6.812;2023-09-19T15:42:00;946.13;;;871.15;;
17197;SDS011;8715;51.010;6.812;2023-09-19T15:44:47;947.83;;;872.47;;
17197;SDS011;8715;51.010;6.812;2023-09-19T15:47:34;947.17;;;872.25;;
17197;SDS011;8715;51.010;6.812;2023-09-19T15:50:21;957.17;;;882.38;;
17197;SDS011;8715;51.010;6.812;2023-09-19T15:53:07;947.00;;;872.67;;
17197;SDS011;8715;51.010;6.812;2023-09-19T15:55:52;945.70;;;871.17;;
17197;SDS011;8715;51.010;6.812;2023-09-19T15:58:38;944.58;;;869.75;;
17197;SDS011;8715;51.010;6.812;2023-09-19T16:01:25;948.05;;;873.42;;
17197;SDS011;8715;51.010;6.812;2023-09-19T16:04:11;950.20;;;875.15;;
17197;SDS011;8715;51.010;6.812;2023-09-19T16:06:57;948.83;;;873.95;;
17197;SDS011;8715;51.010;6.812;2023-09-19T16:09:43;944.88;;;870.35;;
17197;SDS011;8715;51.010;6.812;2023-09-19T16:12:28;957.88;;;883.22;;
17197;SDS011;8715;51.010;6.812;2023-09-19T16:15:13;947.08;;;872.10;;
17197;SDS011;8715;51.010;6.812;2023-09-19T16:18:01;950.03;;;874.97;;
17197;SDS011;8715;51.010;6.812;2023-09-19T16:20:46;946.88;;;872.22;;
17197;SDS011;8715;51.010;6.812;2023-09-19T16:23:31;948.92;;;874.20;;
17197;SDS011;8715;51.010;6.812;2023-09-19T16:26:17;944.63;;;870.30;;
17197;SDS011;8715;51.010;6.812;2023-09-19T16:29:04;945.95;;;871.28;;